Time;durP1;ratioP1;P1;durP2;ratioP2;P2;SDS_P1;SDS_P2;PMS_P1;PMS_P2;Temp;Humidity;BMP_temperature;BMP_pressure;BME280_temperature;BME280_humidity;BME280_pressure;Samples;Min_cycle;Max_cycle;Signal;HPM_P1;HPM_P2
2023/09/29 00:01:12;;;;;;;53.45;27.50;;;;;;;;;;6292608;28;20228;-63
2023/09/29 00:04:15;;;;;;;47.88;27.05;;;;;;;;;;6294388;28;20079;-64
2023/09/29 00:07:16;;;;;;;51.63;27.42;;;;;;;;;;6294003;28;20486;-63
2023/09/29 00:10:16;;;;;;;51.67;28.63;;;;;;;;;;6305775;28;20051;-64
2023/09/29 00:13:17;;;;;;;51.25;27.98;;;;;;;;;;6295531;28;20045;-62
2023/09/29 00:16:18;;;;;;;56.45;29.70;;;;;;;;;;6293135;28;20444;-64
2023/09/29 00:19:18;;;;;;;47.88;26.58;;;;;;;;;;6294978;28;20561;-64
2023/09/29 00:22:19;;;;;;;46.35;26.92;;;;;;;;;;6292875;28;20082;-63
2023/09/29 00:25:20;;;;;;;47.97;26.45;;;;;;;;;;6295097;28;20479;-63
2023/09/29 00:28:20;;;;;;;45.45;26.85;;;;;;;;;;6301193;28;20045;-64
2023/09/29 00:31:21;;;;;;;40.63;22.92;;;;;;;;;;6293534;28;20045;-64
2023/09/29 00:34:22;;;;;;;44.33;24.33;;;;;;;;;;6291661;28;20048;-64
2023/09/29 00:37:23;;;;;;;52.25;27.25;;;;;;;;;;6291953;28;20044;-63
2023/09/29 00:40:23;;;;;;;50.85;26.75;;;;;;;;;;6293858;28;20048;-64
2023/09/29 00:43:27;;;;;;;43.38;26.08;;;;;;;;;;6293838;28;20123;-64
2023/09/29 00:46:29;;;;;;;52.85;27.77;;;;;;;;;;6294770;28;20560;-63
2023/09/29 00:49:30;;;;;;;51.72;27.42;;;;;;;;;;6293203;28;20046;-63
2023/09/29 00:52:31;;;;;;;50.17;26.48;;;;;;;;;;6293257;28;20045;-63
2023/09/29 00:55:32;;;;;;;48.67;26.52;;;;;;;;;;6293327;28;20045;-63
2023/09/29 00:58:33;;;;;;;47.95;26.15;;;;;;;;;;6290455;28;20049;-63
2023/09/29 01:01:34;;;;;;;45.10;25.10;;;;;;;;;;6292807;28;20079;-64
2023/09/29 01:04:35;;;;;;;41.67;24.05;;;;;;;;;;6292977;28;20398;-64
2023/09/29 01:07:36;;;;;;;49.53;26.05;;;;;;;;;;6290428;28;20048;-64
2023/09/29 01:10:38;;;;;;;48.03;25.13;;;;;;;;;;6308568;28;20071;-63
2023/09/29 01:13:40;;;;;;;46.65;25.02;;;;;;;;;;6296672;28;20304;-63
2023/09/29 01:16:41;;;;;;;47.72;25.25;;;;;;;;;;6308024;28;20483;-63
2023/09/29 01:19:42;;;;;;;50.13;25.48;;;;;;;;;;6305842;28;20058;-63
2023/09/29 01:22:46;;;;;;;51.58;25.33;;;;;;;;;;6294307;28;20048;-63
2023/09/29 01:25:47;;;;;;;45.15;24.33;;;;;;;;;;6293000;28;20042;-64
2023/09/29 01:28:50;;;;;;;43.50;23.83;;;;;;;;;;6292415;28;20048;-63
2023/09/29 01:31:51;;;;;;;47.67;24.45;;;;;;;;;;6291798;28;20067;-63
2023/09/29 01:34:52;;;;;;;47.40;25.60;;;;;;;;;;6297202;28;20044;-64
2023/09/29 01:37:54;;;;;;;46.20;25.25;;;;;;;;;;6296320;28;20152;-63
2023/09/29 01:40:55;;;;;;;42.17;23.80;;;;;;;;;;6296749;28;20045;-63
2023/09/29 01:43:56;;;;;;;45.13;24.58;;;;;;;;;;6297669;28;20044;-63
2023/09/29 01:46:57;;;;;;;43.22;24.02;;;;;;;;;;6297120;28;20098;-64
2023/09/29 01:49:57;;;;;;;43.40;25.15;;;;;;;;;;6297185;28;20045;-64
2023/09/29 01:52:58;;;;;;;44.22;23.63;;;;;;;;;;6295991;28;20067;-64
2023/09/29 01:55:59;;;;;;;46.75;23.92;;;;;;;;;;6298264;28;20132;-63
2023/09/29 01:59:01;;;;;;;37.13;21.80;;;;;;;;;;6297617;28;20464;-63
2023/09/29 02:02:01;;;;;;;38.83;22.67;;;;;;;;;;6297721;28;20559;-63
2023/09/29 02:05:02;;;;;;;42.53;23.27;;;;;;;;;;6296617;28;20496;-63
2023/09/29 02:08:05;;;;;;;41.55;23.15;;;;;;;;;;6296925;28;20246;-64
2023/09/29 02:11:07;;;;;;;40.17;22.85;;;;;;;;;;6307563;28;20135;-64
2023/09/29 02:14:09;;;;;;;41.63;23.27;;;;;;;;;;6309974;28;20040;-64
2023/09/29 02:17:10;;;;;;;42.50;22.67;;;;;;;;;;6296977;28;20083;-63
2023/09/29 02:20:17;;;;;;;42.90;23.63;;;;;;;;;;6293938;28;20040;-63
2023/09/29 02:23:17;;;;;;;41.33;22.75;;;;;;;;;;6293447;28;20033;-64
2023/09/29 02:26:18;;;;;;;42.10;23.48;;;;;;;;;;6294397;28;20086;-63
2023/09/29 02:29:18;;;;;;;39.88;21.77;;;;;;;;;;6296228;28;20079;-64
2023/09/29 02:32:19;;;;;;;44.85;24.65;;;;;;;;;;6296110;28;20036;-64
2023/09/29 02:35:20;;;;;;;41.33;22.10;;;;;;;;;;6296128;28;20428;-64
2023/09/29 02:38:21;;;;;;;45.13;23.33;;;;;;;;;;6296029;28;20044;-64
2023/09/29 02:41:21;;;;;;;40.15;22.52;;;;;;;;;;6296840;28;20101;-63
2023/09/29 02:44:22;;;;;;;41.95;23.42;;;;;;;;;;6295862;28;20534;-64
2023/09/29 02:47:23;;;;;;;40.30;22.25;;;;;;;;;;6294630;28;20082;-64
2023/09/29 02:50:24;;;;;;;42.78;23.98;;;;;;;;;;6294695;28;20052;-64
2023/09/29 02:53:25;;;;;;;40.95;22.70;;;;;;;;;;6296573;28;20125;-63
2023/09/29 02:56:26;;;;;;;41.88;23.27;;;;;;;;;;6296206;28;20086;-64
2023/09/29 02:59:26;;;;;;;41.50;22.40;;;;;;;;;;6294663;28;20495;-63
2023/09/29 03:02:27;;;;;;;44.65;22.05;;;;;;;;;;6295544;28;20479;-64
2023/09/29 03:05:28;;;;;;;43.47;23.55;;;;;;;;;;6297280;28;20078;-64
2023/09/29 03:08:28;;;;;;;40.67;22.45;;;;;;;;;;6297653;28;20068;-63
2023/09/29 03:11:29;;;;;;;40.15;22.58;;;;;;;;;;6309003;28;20048;-64
2023/09/29 03:14:30;;;;;;;40.67;22.33;;;;;;;;;;6294363;28;20429;-64
2023/09/29 03:17:32;;;;;;;43.90;23.10;;;;;;;;;;6305193;28;20048;-64
2023/09/29 03:20:32;;;;;;;42.78;22.80;;;;;;;;;;6291284;28;20040;-64
2023/09/29 03:23:37;;;;;;;38.03;21.27;;;;;;;;;;6292616;28;20055;-64
2023/09/29 03:26:37;;;;;;;36.70;20.88;;;;;;;;;;6293184;28;20046;-64
2023/09/29 03:29:38;;;;;;;38.30;21.58;;;;;;;;;;6294139;28;20475;-64
2023/09/29 03:32:39;;;;;;;38.28;20.85;;;;;;;;;;6307677;28;20107;-65
2023/09/29 03:35:40;;;;;;;40.95;21.63;;;;;;;;;;6294245;28;20048;-64
2023/09/29 03:38:41;;;;;;;36.40;21.15;;;;;;;;;;6292234;28;20183;-64
2023/09/29 03:41:42;;;;;;;38.72;20.77;;;;;;;;;;6290626;28;20048;-63
2023/09/29 03:44:44;;;;;;;37.97;20.97;;;;;;;;;;6291835;28;20075;-64
2023/09/29 03:47:46;;;;;;;39.50;21.77;;;;;;;;;;6302406;28;20052;-64
2023/09/29 03:50:50;;;;;;;44.28;21.77;;;;;;;;;;6292384;28;20135;-63
2023/09/29 03:53:52;;;;;;;47.42;23.55;;;;;;;;;;6291886;28;20055;-63
2023/09/29 03:56:53;;;;;;;63.88;28.10;;;;;;;;;;6301723;28;20046;-64
2023/09/29 03:59:54;;;;;;;48.67;24.30;;;;;;;;;;6309517;28;20048;-64
2023/09/29 04:02:55;;;;;;;47.65;24.10;;;;;;;;;;6283660;28;20043;-64
2023/09/29 04:05:55;;;;;;;46.78;25.60;;;;;;;;;;6297915;28;20040;-64
2023/09/29 04:08:56;;;;;;;46.47;25.35;;;;;;;;;;6292677;28;20550;-64
2023/09/29 04:11:56;;;;;;;56.50;27.40;;;;;;;;;;6297019;28;20048;-64
2023/09/29 04:14:57;;;;;;;55.38;30.33;;;;;;;;;;6293506;28;20045;-64
2023/09/29 04:17:57;;;;;;;55.17;26.75;;;;;;;;;;6290861;28;20044;-65
2023/09/29 04:21:02;;;;;;;88.63;32.38;;;;;;;;;;6291009;28;20036;-64
2023/09/29 04:24:03;;;;;;;113.32;32.75;;;;;;;;;;6287145;28;20048;-64
2023/09/29 04:27:03;;;;;;;81.18;31.67;;;;;;;;;;6289186;28;20049;-64
2023/09/29 04:30:06;;;;;;;411.95;39.42;;;;;;;;;;6276877;28;20051;-64
2023/09/29 04:33:07;;;;;;;317.35;35.95;;;;;;;;;;6295234;28;20072;-64
2023/09/29 04:36:07;;;;;;;207.25;34.72;;;;;;;;;;6292013;28;20059;-63
2023/09/29 04:39:08;;;;;;;194.43;36.08;;;;;;;;;;6289914;28;20044;-64
2023/09/29 04:42:09;;;;;;;112.95;38.47;;;;;;;;;;6290237;28;20041;-64
2023/09/29 04:45:09;;;;;;;93.28;37.17;;;;;;;;;;6290245;28;20546;-64
2023/09/29 04:48:10;;;;;;;134.40;51.30;;;;;;;;;;6291785;28;20063;-64
2023/09/29 04:51:10;;;;;;;99.15;42.25;;;;;;;;;;6292068;28;20040;-64
2023/09/29 04:54:11;;;;;;;99.72;42.30;;;;;;;;;;6291281;28;20044;-63
2023/09/29 04:58:16;;;;;;;84.65;40.05;;;;;;;;;;6711719;22;20052;-63
2023/09/29 05:01:18;;;;;;;90.40;38.72;;;;;;;;;;6242090;28;20491;-64
2023/09/29 05:04:18;;;;;;;119.93;35.60;;;;;;;;;;6243589;28;20420;-64
2023/09/29 05:07:19;;;;;;;187.80;38.13;;;;;;;;;;6246926;28;20037;-64
2023/09/29 05:10:20;;;;;;;85.18;37.83;;;;;;;;;;6248688;28;20060;-64
2023/09/29 05:13:20;;;;;;;82.03;37.35;;;;;;;;;;6249729;28;20743;-64
2023/09/29 05:16:22;;;;;;;81.22;40.05;;;;;;;;;;6247163;28;20049;-63
2023/09/29 05:19:22;;;;;;;74.65;36.55;;;;;;;;;;6247006;28;20496;-64
2023/09/29 05:22:23;;;;;;;78.45;36.40;;;;;;;;;;6246749;28;20060;-64
2023/09/29 05:25:24;;;;;;;78.28;36.28;;;;;;;;;;6249433;28;20049;-64
2023/09/29 05:28:24;;;;;;;66.90;33.35;;;;;;;;;;6248047;28;20358;-64
2023/09/29 05:31:25;;;;;;;63.40;32.80;;;;;;;;;;6246083;28;20091;-64
2023/09/29 05:34:25;;;;;;;66.95;34.20;;;;;;;;;;6245395;28;20076;-64
2023/09/29 05:37:26;;;;;;;67.38;34.85;;;;;;;;;;6248834;28;20430;-64
2023/09/29 05:40:28;;;;;;;74.72;36.28;;;;;;;;;;6248320;28;20392;-64
2023/09/29 05:43:29;;;;;;;69.15;35.35;;;;;;;;;;6246970;28;20056;-64
2023/09/29 05:46:29;;;;;;;68.88;35.00;;;;;;;;;;6247905;28;20053;-64
2023/09/29 05:49:32;;;;;;;66.70;33.40;;;;;;;;;;6246758;28;20444;-64
2023/09/29 05:52:32;;;;;;;71.38;33.88;;;;;;;;;;6247048;28;20072;-64
2023/09/29 05:55:34;;;;;;;63.75;33.13;;;;;;;;;;6248452;28;20046;-64
2023/09/29 05:58:36;;;;;;;67.50;31.87;;;;;;;;;;6247954;28;20439;-64
2023/09/29 06:01:36;;;;;;;64.13;32.17;;;;;;;;;;6245809;28;20303;-64
2023/09/29 06:04:38;;;;;;;64.63;32.37;;;;;;;;;;6248095;28;20050;-64
2023/09/29 06:07:39;;;;;;;63.15;31.60;;;;;;;;;;6248013;28;20064;-65
2023/09/29 06:10:40;;;;;;;61.40;31.98;;;;;;;;;;6245873;28;20056;-64
2023/09/29 06:13:42;;;;;;;61.95;30.45;;;;;;;;;;6247705;28;20045;-64
2023/09/29 06:16:42;;;;;;;59.05;29.70;;;;;;;;;;6247103;28;20452;-64
2023/09/29 06:19:43;;;;;;;51.50;26.77;;;;;;;;;;6245334;28;20041;-64
2023/09/29 06:22:43;;;;;;;52.22;26.73;;;;;;;;;;6246458;28;20042;-63
2023/09/29 06:25:44;;;;;;;52.28;27.88;;;;;;;;;;6247194;28;20072;-65
2023/09/29 06:28:44;;;;;;;53.13;28.42;;;;;;;;;;6246301;28;20046;-64
2023/09/29 06:31:45;;;;;;;59.30;27.75;;;;;;;;;;6244773;28;20049;-65
2023/09/29 06:34:46;;;;;;;53.17;26.15;;;;;;;;;;6246919;28;20053;-65
2023/09/29 06:37:46;;;;;;;50.72;23.80;;;;;;;;;;6246227;28;20476;-65
2023/09/29 06:40:47;;;;;;;48.88;25.13;;;;;;;;;;6245119;28;20092;-65
2023/09/29 06:43:48;;;;;;;46.40;23.80;;;;;;;;;;6245109;28;20421;-64
2023/09/29 06:46:48;;;;;;;47.70;22.52;;;;;;;;;;6246887;28;20056;-64
2023/09/29 06:49:49;;;;;;;36.15;19.48;;;;;;;;;;6245545;28;20506;-64
2023/09/29 06:52:50;;;;;;;31.52;18.48;;;;;;;;;;6244927;28;20328;-65
2023/09/29 06:55:51;;;;;;;37.38;19.17;;;;;;;;;;6247967;28;20045;-64
2023/09/29 06:58:54;;;;;;;35.88;18.27;;;;;;;;;;6245835;28;20053;-65
2023/09/29 07:01:55;;;;;;;33.97;16.42;;;;;;;;;;6242604;28;20044;-64
2023/09/29 07:04:55;;;;;;;29.33;16.17;;;;;;;;;;6245297;28;20488;-64
2023/09/29 07:07:56;;;;;;;27.33;16.23;;;;;;;;;;6244450;28;20033;-64
2023/09/29 07:10:57;;;;;;;27.35;15.77;;;;;;;;;;6243986;28;20045;-64
2023/09/29 07:13:58;;;;;;;31.60;17.03;;;;;;;;;;6245213;28;20432;-65
2023/09/29 07:16:58;;;;;;;26.88;16.13;;;;;;;;;;6226159;28;20045;-64
2023/09/29 07:19:59;;;;;;;31.38;17.05;;;;;;;;;;6243271;28;20534;-65
2023/09/29 07:23:02;;;;;;;29.50;16.35;;;;;;;;;;6243397;28;20044;-64
2023/09/29 07:26:03;;;;;;;31.15;16.70;;;;;;;;;;6244311;28;20129;-65
2023/09/29 07:29:04;;;;;;;35.25;16.73;;;;;;;;;;6244056;28;20048;-63
2023/09/29 07:32:05;;;;;;;24.67;15.52;;;;;;;;;;6222226;28;20050;-64
2023/09/29 07:35:07;;;;;;;29.52;15.82;;;;;;;;;;6242416;28;20556;-63
2023/09/29 07:38:08;;;;;;;28.02;16.15;;;;;;;;;;6244083;28;20095;-63
2023/09/29 07:41:08;;;;;;;29.77;17.27;;;;;;;;;;6244182;28;20053;-65
2023/09/29 07:44:09;;;;;;;40.95;17.48;;;;;;;;;;6243651;28;20065;-65
2023/09/29 07:47:10;;;;;;;37.97;17.60;;;;;;;;;;6243681;28;20072;-64
2023/09/29 07:50:10;;;;;;;32.47;17.73;;;;;;;;;;6243245;28;20102;-64
2023/09/29 07:53:11;;;;;;;35.10;18.05;;;;;;;;;;6240652;28;20053;-63
2023/09/29 07:56:12;;;;;;;40.60;20.42;;;;;;;;;;6243070;28;20060;-63
2023/09/29 07:59:13;;;;;;;35.63;18.00;;;;;;;;;;6243702;28;20050;-63
2023/09/29 08:02:22;;;;;;;41.78;21.85;;;;;;;;;;6296575;28;20872;-64
2023/09/29 08:05:23;;;;;;;43.97;20.07;;;;;;;;;;6286311;28;20052;-66
2023/09/29 08:08:24;;;;;;;39.20;18.10;;;;;;;;;;6284534;28;20083;-66
2023/09/29 08:11:26;;;;;;;33.22;17.42;;;;;;;;;;6286360;28;20048;-65
2023/09/29 08:14:27;;;;;;;33.25;17.20;;;;;;;;;;6287789;28;20053;-65
2023/09/29 08:17:27;;;;;;;35.07;17.17;;;;;;;;;;6287175;28;20044;-65
2023/09/29 08:20:28;;;;;;;32.67;16.83;;;;;;;;;;6285782;28;20056;-65
2023/09/29 08:23:30;;;;;;;34.60;17.37;;;;;;;;;;6286648;28;20503;-65
2023/09/29 08:26:31;;;;;;;29.08;14.57;;;;;;;;;;6284793;28;20047;-66
2023/09/29 08:29:32;;;;;;;26.50;14.07;;;;;;;;;;6285104;28;20487;-67
2023/09/29 08:32:32;;;;;;;35.37;14.47;;;;;;;;;;6285851;28;20102;-66
2023/09/29 08:35:33;;;;;;;26.43;13.73;;;;;;;;;;6285142;28;20047;-66
2023/09/29 08:38:33;;;;;;;26.17;14.43;;;;;;;;;;6285957;28;20052;-66
2023/09/29 08:41:35;;;;;;;27.20;14.20;;;;;;;;;;6284200;28;20283;-66
2023/09/29 08:44:36;;;;;;;;;;;;;;;;;;6287296;28;20048;-66
2023/09/29 08:47:38;;;;;;;27.50;14.05;;;;;;;;;;6285805;28;20439;-65
2023/09/29 08:50:41;;;;;;;26.23;14.15;;;;;;;;;;6283717;28;20514;-65
2023/09/29 08:53:43;;;;;;;25.13;14.25;;;;;;;;;;6286507;28;20047;-65
2023/09/29 08:56:45;;;;;;;32.80;15.63;;;;;;;;;;6286024;28;20056;-65
2023/09/29 08:59:48;;;;;;;28.50;14.40;;;;;;;;;;6284928;28;20063;-64
2023/09/29 09:02:49;;;;;;;27.65;13.77;;;;;;;;;;6285730;28;20045;-64
2023/09/29 09:05:50;;;;;;;22.10;13.50;;;;;;;;;;6287370;28;20036;-65
2023/09/29 09:08:51;;;;;;;27.13;15.40;;;;;;;;;;6285073;28;20047;-65
2023/09/29 09:11:53;;;;;;;31.15;14.98;;;;;;;;;;6279315;28;20411;-65
2023/09/29 09:14:54;;;;;;;31.30;14.33;;;;;;;;;;6269252;28;20064;-66
2023/09/29 09:17:57;;;;;;;27.58;14.82;;;;;;;;;;6269112;28;20788;-65
2023/09/29 09:20:57;;;;;;;27.27;14.95;;;;;;;;;;6268705;28;20072;-65
2023/09/29 09:23:58;;;;;;;29.33;14.93;;;;;;;;;;6268760;28;20075;-65
2023/09/29 09:27:02;;;;;;;30.37;15.50;;;;;;;;;;6268712;28;20045;-65
2023/09/29 09:30:04;;;;;;;23.25;14.10;;;;;;;;;;6268091;28;20051;-66
2023/09/29 09:33:05;;;;;;;31.30;14.55;;;;;;;;;;6268821;28;20439;-67
2023/09/29 09:36:09;;;;;;;31.73;14.65;;;;;;;;;;6269095;28;20063;-66
2023/09/29 09:39:10;;;;;;;29.05;14.80;;;;;;;;;;6266828;28;20049;-66
2023/09/29 09:42:11;;;;;;;25.93;14.00;;;;;;;;;;6269271;28;20069;-66
2023/09/29 09:45:13;;;;;;;28.65;15.43;;;;;;;;;;6268826;28;20044;-66
2023/09/29 09:48:20;;;;;;;25.92;14.90;;;;;;;;;;6268289;28;20052;-65
2023/09/29 09:51:35;;;;;;;30.27;14.93;;;;;;;;;;6265070;28;20045;-64
2023/09/29 09:54:51;;;;;;;30.27;15.02;;;;;;;;;;6268017;28;20045;-65
2023/09/29 09:57:51;;;;;;;29.17;13.88;;;;;;;;;;6255245;28;20135;-65
2023/09/29 10:00:55;;;;;;;27.90;15.37;;;;;;;;;;6266727;28;20060;-66
2023/09/29 10:03:56;;;;;;;27.88;15.10;;;;;;;;;;6266038;28;20178;-66
2023/09/29 10:06:59;;;;;;;32.58;15.40;;;;;;;;;;6266641;28;20048;-63
2023/09/29 10:10:00;;;;;;;33.47;15.00;;;;;;;;;;6266820;28;20049;-66
2023/09/29 10:13:03;;;;;;;33.70;14.77;;;;;;;;;;6265671;28;20135;-66
2023/09/29 10:16:05;;;;;;;26.30;14.15;;;;;;;;;;6265772;28;20056;-65
2023/09/29 10:19:11;;;;;;;25.60;13.75;;;;;;;;;;6253977;28;20045;-66
2023/09/29 10:22:21;;;;;;;28.67;15.82;;;;;;;;;;6265930;28;20044;-65
2023/09/29 10:25:23;;;;;;;28.35;15.15;;;;;;;;;;6251156;28;20484;-66
2023/09/29 10:28:34;;;;;;;26.27;14.57;;;;;;;;;;6266021;28;20041;-66
2023/09/29 10:31:35;;;;;;;33.72;16.70;;;;;;;;;;6265882;28;20187;-66
2023/09/29 10:34:40;;;;;;;25.90;12.93;;;;;;;;;;6261171;28;20056;-65
2023/09/29 10:37:41;;;;;;;25.02;12.65;;;;;;;;;;6262802;28;20290;-66
2023/09/29 10:40:41;;;;;;;24.10;13.03;;;;;;;;;;6264639;28;20045;-66
2023/09/29 10:43:43;;;;;;;25.90;12.17;;;;;;;;;;6253002;28;20472;-66
2023/09/29 10:46:50;;;;;;;19.77;12.40;;;;;;;;;;6265312;28;20298;-64
2023/09/29 10:49:50;;;;;;;23.00;11.70;;;;;;;;;;6266752;28;20312;-65
2023/09/29 10:52:51;;;;;;;24.90;12.00;;;;;;;;;;6262578;28;20503;-66
2023/09/29 10:55:54;;;;;;;23.47;12.13;;;;;;;;;;6266624;28;20045;-67
2023/09/29 10:58:55;;;;;;;27.75;12.65;;;;;;;;;;6265870;28;20053;-65
2023/09/29 11:01:56;;;;;;;27.77;12.50;;;;;;;;;;6265335;28;20056;-66
2023/09/29 11:04:59;;;;;;;26.60;13.13;;;;;;;;;;6263215;28;20400;-66
2023/09/29 11:08:00;;;;;;;23.80;12.65;;;;;;;;;;6261546;28;20118;-66
2023/09/29 11:11:03;;;;;;;21.83;12.53;;;;;;;;;;6264596;28;20380;-64
2023/09/29 11:14:05;;;;;;;29.38;13.30;;;;;;;;;;6245004;28;20041;-65
2023/09/29 11:17:06;;;;;;;32.38;12.88;;;;;;;;;;6263791;28;20090;-65
2023/09/29 11:20:15;;;;;;;22.53;12.77;;;;;;;;;;6264949;28;20041;-66
2023/09/29 11:23:16;;;;;;;25.67;12.70;;;;;;;;;;6264881;28;20094;-65
2023/09/29 11:26:17;;;;;;;;;;;;;;;;;;6264404;28;20452;-65
2023/09/29 11:29:21;;;;;;;27.13;13.35;;;;;;;;;;6265478;28;19929;-65
2023/09/29 11:32:23;;;;;;;25.77;12.93;;;;;;;;;;6262838;28;20045;-63
2023/09/29 11:35:25;;;;;;;23.38;12.50;;;;;;;;;;6264542;28;20064;-65
2023/09/29 11:38:26;;;;;;;27.83;12.82;;;;;;;;;;6263417;28;20131;-63
2023/09/29 11:41:28;;;;;;;23.77;13.23;;;;;;;;;;6251521;28;20060;-64
2023/09/29 11:44:29;;;;;;;22.75;13.20;;;;;;;;;;6262883;28;20033;-66
2023/09/29 11:47:30;;;;;;;29.20;14.20;;;;;;;;;;6262377;28;20069;-65
2023/09/29 11:50:31;;;;;;;27.90;13.70;;;;;;;;;;6265612;28;20037;-66
2023/09/29 11:53:31;;;;;;;32.22;14.10;;;;;;;;;;6265059;28;20457;-66
2023/09/29 11:56:32;;;;;;;23.73;13.80;;;;;;;;;;6260313;28;20221;-66
2023/09/29 11:59:32;;;;;;;24.20;13.33;;;;;;;;;;6262396;28;20128;-63
2023/09/29 12:02:34;;;;;;;30.27;13.43;;;;;;;;;;6262196;28;20072;-65
2023/09/29 12:05:35;;;;;;;28.50;13.75;;;;;;;;;;6263822;28;20045;-66
2023/09/29 12:08:36;;;;;;;25.45;14.55;;;;;;;;;;6261437;28;20140;-66
2023/09/29 12:11:37;;;;;;;42.33;15.00;;;;;;;;;;6264279;28;20513;-67
2023/09/29 12:14:38;;;;;;;;;;;;;;;;;;6264709;28;20047;-66
2023/09/29 12:17:38;;;;;;;27.27;14.80;;;;;;;;;;6262193;28;19920;-66
2023/09/29 12:20:40;;;;;;;25.45;14.27;;;;;;;;;;6259164;28;20079;-65
2023/09/29 12:23:41;;;;;;;;;;;;;;;;;;6250067;28;20076;-64
2023/09/29 12:26:46;;;;;;;33.97;13.95;;;;;;;;;;6249249;28;19932;-66
2023/09/29 12:29:46;;;;;;;30.13;14.30;;;;;;;;;;6250253;28;20525;-65
2023/09/29 12:32:48;;;;;;;28.60;14.43;;;;;;;;;;6249755;28;20053;-65
2023/09/29 12:35:48;;;;;;;32.22;14.65;;;;;;;;;;6252064;28;20107;-64
2023/09/29 12:38:49;;;;;;;25.13;14.80;;;;;;;;;;6250390;28;20143;-65
2023/09/29 12:41:49;;;;;;;31.90;14.30;;;;;;;;;;6250951;28;20399;-63
2023/09/29 12:44:50;;;;;;;38.87;17.60;;;;;;;;;;6249893;28;20145;-64
2023/09/29 12:47:52;;;;;;;34.37;15.40;;;;;;;;;;6250535;28;20053;-63
2023/09/29 12:50:53;;;;;;;34.13;15.65;;;;;;;;;;6258487;28;20547;-64
2023/09/29 12:53:53;;;;;;;30.90;15.00;;;;;;;;;;6251535;28;20052;-64
2023/09/29 12:56:55;;;;;;;35.57;16.07;;;;;;;;;;6255740;28;20049;-64
2023/09/29 12:59:56;;;;;;;30.70;15.73;;;;;;;;;;6257000;28;20064;-62
2023/09/29 13:03:04;;;;;;;;;;;;;;;;;;6254888;28;20530;-63
2023/09/29 13:06:05;;;;;;;31.02;15.32;;;;;;;;;;6257639;28;19925;-62
2023/09/29 13:09:06;;;;;;;28.00;14.90;;;;;;;;;;6255955;28;20122;-63
2023/09/29 13:12:07;;;;;;;31.87;15.73;;;;;;;;;;6256101;28;20053;-63
2023/09/29 13:15:09;;;;;;;35.00;15.45;;;;;;;;;;6256787;28;20055;-63
2023/09/29 13:18:10;;;;;;;32.22;16.25;;;;;;;;;;6253752;28;20876;-63
2023/09/29 13:21:11;;;;;;;29.20;15.27;;;;;;;;;;6256651;28;20049;-63
2023/09/29 13:24:12;;;;;;;39.60;16.23;;;;;;;;;;6254726;28;20392;-63
2023/09/29 13:27:13;;;;;;;34.30;15.57;;;;;;;;;;6254234;28;20392;-64
2023/09/29 13:30:14;;;;;;;30.53;16.20;;;;;;;;;;6257306;28;20045;-63
2023/09/29 13:33:15;;;;;;;31.77;15.60;;;;;;;;;;6254572;28;20497;-63
2023/09/29 13:36:15;;;;;;;30.23;16.53;;;;;;;;;;6256790;28;20563;-63
2023/09/29 13:39:16;;;;;;;45.70;17.10;;;;;;;;;;6253245;28;20644;-62
2023/09/29 13:42:16;;;;;;;31.67;16.27;;;;;;;;;;6254728;28;20057;-62
2023/09/29 13:45:17;;;;;;;37.00;15.77;;;;;;;;;;6256775;28;20088;-62
2023/09/29 13:48:22;;;;;;;39.47;17.53;;;;;;;;;;6253932;28;20064;-63
2023/09/29 13:51:22;;;;;;;37.45;16.88;;;;;;;;;;6255868;28;20129;-62
2023/09/29 13:54:23;;;;;;;34.47;16.37;;;;;;;;;;6252872;28;20055;-63
2023/09/29 13:57:24;;;;;;;39.55;16.65;;;;;;;;;;6255211;28;20163;-63
2023/09/29 14:00:24;;;;;;;31.87;17.47;;;;;;;;;;6254114;28;20622;-63
2023/09/29 14:03:25;;;;;;;33.90;18.07;;;;;;;;;;6253315;28;20621;-63
2023/09/29 14:06:25;;;;;;;38.30;17.07;;;;;;;;;;6255580;28;20056;-63
2023/09/29 14:09:26;;;;;;;35.10;16.63;;;;;;;;;;6256060;28;20416;-64
2023/09/29 14:12:27;;;;;;;38.53;17.37;;;;;;;;;;6254363;28;20048;-63
2023/09/29 14:15:29;;;;;;;31.58;17.73;;;;;;;;;;6257035;28;20140;-64
2023/09/29 14:18:29;;;;;;;43.72;17.85;;;;;;;;;;6254978;28;20572;-63
2023/09/29 14:21:30;;;;;;;33.93;17.93;;;;;;;;;;6256590;28;20087;-62
2023/09/29 14:24:33;;;;;;;34.50;18.53;;;;;;;;;;6254082;28;20056;-63
2023/09/29 14:27:35;;;;;;;35.50;18.52;;;;;;;;;;6252366;28;20041;-63
2023/09/29 14:30:37;;;;;;;33.00;17.75;;;;;;;;;;6255445;28;20059;-64
2023/09/29 14:33:38;;;;;;;38.33;18.00;;;;;;;;;;6252384;28;20053;-63
2023/09/29 14:36:38;;;;;;;35.73;18.27;;;;;;;;;;6255178;28;20052;-62
2023/09/29 14:39:40;;;;;;;44.38;18.70;;;;;;;;;;6252183;28;20057;-63
2023/09/29 14:42:40;;;;;;;37.20;18.47;;;;;;;;;;6252252;28;20446;-63
2023/09/29 14:45:41;;;;;;;36.47;17.90;;;;;;;;;;6255762;28;20056;-64
2023/09/29 14:48:42;;;;;;;46.30;19.53;;;;;;;;;;6257071;28;20048;-64
2023/09/29 14:51:43;;;;;;;;;;;;;;;;;;6253554;28;20044;-65
2023/09/29 14:54:43;;;;;;;44.33;18.90;;;;;;;;;;6253069;28;19928;-64
2023/09/29 14:57:45;;;;;;;41.22;20.02;;;;;;;;;;6252185;28;20090;-64
2023/09/29 15:00:45;;;;;;;40.77;19.80;;;;;;;;;;6254970;28;20053;-63
2023/09/29 15:03:46;;;;;;;41.53;18.17;;;;;;;;;;6252873;28;20447;-64
2023/09/29 15:06:46;;;;;;;35.23;18.20;;;;;;;;;;6251254;28;20052;-64
2023/09/29 15:09:47;;;;;;;37.25;17.92;;;;;;;;;;6255337;28;20418;-65
2023/09/29 15:12:47;;;;;;;38.93;17.50;;;;;;;;;;6254316;28;20053;-64
2023/09/29 15:15:48;;;;;;;36.47;19.20;;;;;;;;;;6257233;28;20082;-63
2023/09/29 15:18:50;;;;;;;45.20;19.07;;;;;;;;;;6251357;28;20293;-62
2023/09/29 15:21:51;;;;;;;53.42;21.38;;;;;;;;;;6255655;28;20513;-63
2023/09/29 15:24:53;;;;;;;40.57;20.90;;;;;;;;;;6254959;28;20079;-63
2023/09/29 15:27:54;;;;;;;40.80;20.23;;;;;;;;;;6255115;28;20506;-64
2023/09/29 15:30:55;;;;;;;32.37;18.17;;;;;;;;;;6257292;28;20369;-64
2023/09/29 15:33:56;;;;;;;40.95;19.08;;;;;;;;;;6255089;28;20049;-64
2023/09/29 15:36:56;;;;;;;39.70;19.60;;;;;;;;;;6253309;28;20069;-64
2023/09/29 15:39:57;;;;;;;39.63;19.93;;;;;;;;;;6256011;28;20061;-62
2023/09/29 15:42:58;;;;;;;45.97;19.90;;;;;;;;;;6255716;28;20550;-66
2023/09/29 15:46:10;;;;;;;49.80;20.35;;;;;;;;;;6254725;28;20078;-63
2023/09/29 15:49:14;;;;;;;43.60;20.25;;;;;;;;;;6262442;28;20041;-67
2023/09/29 15:52:15;;;;;;;38.28;19.15;;;;;;;;;;6254726;28;21149;-67
2023/09/29 15:55:16;;;;;;;37.85;19.23;;;;;;;;;;6256165;28;20080;-69
2023/09/29 15:58:16;;;;;;;45.63;20.47;;;;;;;;;;6254862;28;20052;-65
2023/09/29 16:01:17;;;;;;;46.00;19.90;;;;;;;;;;6255679;28;20470;-66
2023/09/29 16:04:18;;;;;;;40.77;20.00;;;;;;;;;;6248962;28;20467;-66
2023/09/29 16:07:18;;;;;;;42.77;21.20;;;;;;;;;;6252062;28;20521;-65
2023/09/29 16:10:20;;;;;;;48.03;21.25;;;;;;;;;;6252637;28;20450;-67
2023/09/29 16:13:22;;;;;;;48.83;21.70;;;;;;;;;;6251404;28;20057;-66
2023/09/29 16:16:22;;;;;;;45.53;20.08;;;;;;;;;;6253550;28;20049;-66
2023/09/29 16:19:23;;;;;;;45.23;21.60;;;;;;;;;;6251894;28;20717;-67
2023/09/29 16:22:23;;;;;;;43.63;20.73;;;;;;;;;;6253723;28;20076;-65
2023/09/29 16:25:24;;;;;;;44.20;22.23;;;;;;;;;;6259230;28;20029;-66
2023/09/29 16:28:25;;;;;;;47.13;20.87;;;;;;;;;;6256255;28;20041;-66
2023/09/29 16:31:28;;;;;;;41.37;20.93;;;;;;;;;;6273419;28;20045;-66
2023/09/29 16:34:29;;;;;;;40.60;21.27;;;;;;;;;;6257318;28;20063;-66
2023/09/29 16:37:31;;;;;;;44.50;22.33;;;;;;;;;;6256761;28;20045;-67
2023/09/29 16:40:32;;;;;;;46.88;22.52;;;;;;;;;;6256631;28;20061;-65
2023/09/29 16:43:34;;;;;;;46.00;21.93;;;;;;;;;;6256172;28;20450;-65
2023/09/29 16:46:36;;;;;;;56.70;23.55;;;;;;;;;;6258779;28;20431;-66
2023/09/29 16:49:36;;;;;;;;;;;;;;;;;;6257501;28;20056;-67
2023/09/29 16:52:37;;;;;;;54.78;23.23;;;;;;;;;;6257064;28;19924;-65
2023/09/29 16:55:38;;;;;;;64.20;27.60;;;;;;;;;;6258160;28;20127;-65
2023/09/29 16:58:40;;;;;;;56.77;23.70;;;;;;;;;;6257823;28;20087;-66
2023/09/29 17:01:42;;;;;;;62.58;27.58;;;;;;;;;;6255961;28;20057;-66
2023/09/29 17:04:43;;;;;;;63.75;28.88;;;;;;;;;;6255928;28;20048;-64
2023/09/29 17:07:43;;;;;;;91.97;31.23;;;;;;;;;;6258190;28;20654;-65
2023/09/29 17:10:44;;;;;;;78.43;31.47;;;;;;;;;;6253699;28;20126;-64
2023/09/29 17:13:45;;;;;;;80.73;32.90;;;;;;;;;;6252655;28;20094;-65
2023/09/29 17:16:46;;;;;;;80.30;33.00;;;;;;;;;;6254602;28;20049;-63
2023/09/29 17:19:49;;;;;;;77.87;33.43;;;;;;;;;;6252241;28;20049;-66
2023/09/29 17:22:50;;;;;;;88.82;35.28;;;;;;;;;;6253524;28;20075;-64
2023/09/29 17:25:50;;;;;;;80.30;35.23;;;;;;;;;;6255427;28;21282;-64
2023/09/29 17:28:51;;;;;;;88.23;34.60;;;;;;;;;;6252712;28;20083;-63
2023/09/29 17:31:52;;;;;;;86.27;34.10;;;;;;;;;;6252272;28;20056;-64
2023/09/29 17:34:59;;;;;;;84.70;33.77;;;;;;;;;;6251423;28;20040;-65
2023/09/29 17:38:00;;;;;;;69.25;30.75;;;;;;;;;;6268457;28;20052;-64